sensor_id;sensor_type;location;lat;lon;timestamp;temperature;humidity
62589;DHT22;58504;48.770;9.148;2023-10-31T00:00:11;22.70;59.30
62589;DHT22;58504;48.770;9.148;2023-10-31T00:02:39;22.60;59.20
62589;DHT22;58504;48.770;9.148;2023-10-31T00:05:06;22.60;59.30
62589;DHT22;58504;48.770;9.148;2023-10-31T00:07:34;22.70;59.40
62589;DHT22;58504;48.770;9.148;2023-10-31T00:10:01;22.60;59.40
62589;DHT22;58504;48.770;9.148;2023-10-31T00:12:28;22.60;59.50
62589;DHT22;58504;48.770;9.148;2023-10-31T00:14:55;22.60;59.50
62589;DHT22;58504;48.770;9.148;2023-10-31T00:17:21;22.60;59.60
62589;DHT22;58504;48.770;9.148;2023-10-31T00:19:49;22.50;59.50
62589;DHT22;58504;48.770;9.148;2023-10-31T00:22:16;22.50;59.50
62589;DHT22;58504;48.770;9.148;2023-10-31T00:24:43;22.50;59.60
62589;DHT22;58504;48.770;9.148;2023-10-31T00:27:10;22.50;59.60
62589;DHT22;58504;48.770;9.148;2023-10-31T00:29:37;22.50;59.70
62589;DHT22;58504;48.770;9.148;2023-10-31T00:32:04;22.40;59.60
62589;DHT22;58504;48.770;9.148;2023-10-31T00:34:30;22.40;59.60
62589;DHT22;58504;48.770;9.148;2023-10-31T00:36:58;22.40;59.60
62589;DHT22;58504;48.770;9.148;2023-10-31T00:39:25;22.40;59.50
62589;DHT22;58504;48.770;9.148;2023-10-31T00:41:52;22.40;59.50
62589;DHT22;58504;48.770;9.148;2023-10-31T00:44:19;22.40;59.50
62589;DHT22;58504;48.770;9.148;2023-10-31T00:46:45;22.40;59.30
62589;DHT22;58504;48.770;9.148;2023-10-31T00:49:12;22.40;59.30
62589;DHT22;58504;48.770;9.148;2023-10-31T00:51:39;22.40;59.90
62589;DHT22;58504;48.770;9.148;2023-10-31T00:54:07;22.40;59.40
62589;DHT22;58504;48.770;9.148;2023-10-31T00:56:33;22.40;59.40
62589;DHT22;58504;48.770;9.148;2023-10-31T00:59:01;22.40;59.40
62589;DHT22;58504;48.770;9.148;2023-10-31T01:01:28;22.30;59.40
62589;DHT22;58504;48.770;9.148;2023-10-31T01:03:54;22.30;59.40
62589;DHT22;58504;48.770;9.148;2023-10-31T01:06:21;22.30;59.50
62589;DHT22;58504;48.770;9.148;2023-10-31T01:08:48;22.30;59.50
62589;DHT22;58504;48.770;9.148;2023-10-31T01:11:16;22.30;59.50
62589;DHT22;58504;48.770;9.148;2023-10-31T01:13:43;22.30;59.60
62589;DHT22;58504;48.770;9.148;2023-10-31T01:16:09;22.30;59.60
62589;DHT22;58504;48.770;9.148;2023-10-31T01:18:36;22.20;59.50
62589;DHT22;58504;48.770;9.148;2023-10-31T01:21:03;22.20;59.60
62589;DHT22;58504;48.770;9.148;2023-10-31T01:23:30;22.20;59.60
62589;DHT22;58504;48.770;9.148;2023-10-31T01:25:56;22.20;59.50
62589;DHT22;58504;48.770;9.148;2023-10-31T01:28:25;22.20;59.60
62589;DHT22;58504;48.770;9.148;2023-10-31T01:30:51;22.20;59.60
62589;DHT22;58504;48.770;9.148;2023-10-31T01:33:18;22.20;59.60
62589;DHT22;58504;48.770;9.148;2023-10-31T01:35:45;22.20;59.70
62589;DHT22;58504;48.770;9.148;2023-10-31T01:38:12;22.10;59.60
62589;DHT22;58504;48.770;9.148;2023-10-31T01:40:38;22.10;59.60
62589;DHT22;58504;48.770;9.148;2023-10-31T01:43:05;22.10;59.70
62589;DHT22;58504;48.770;9.148;2023-10-31T01:45:33;22.10;59.70
62589;DHT22;58504;48.770;9.148;2023-10-31T01:48:00;22.10;59.80
62589;DHT22;58504;48.770;9.148;2023-10-31T01:50:27;22.10;59.80
62589;DHT22;58504;48.770;9.148;2023-10-31T01:52:54;22.10;59.80
62589;DHT22;58504;48.770;9.148;2023-10-31T01:55:21;22.10;59.80
62589;DHT22;58504;48.770;9.148;2023-10-31T01:57:53;22.10;59.80
62589;DHT22;58504;48.770;9.148;2023-10-31T02:00:20;22.10;59.90
62589;DHT22;58504;48.770;9.148;2023-10-31T02:02:52;22.00;59.70
62589;DHT22;58504;48.770;9.148;2023-10-31T02:05:19;22.00;59.80
62589;DHT22;58504;48.770;9.148;2023-10-31T02:07:45;22.00;59.80
62589;DHT22;58504;48.770;9.148;2023-10-31T02:10:13;22.00;59.80
62589;DHT22;58504;48.770;9.148;2023-10-31T02:12:39;22.00;59.90
62589;DHT22;58504;48.770;9.148;2023-10-31T02:15:09;22.00;59.90
62589;DHT22;58504;48.770;9.148;2023-10-31T02:17:36;22.00;59.90
62589;DHT22;58504;48.770;9.148;2023-10-31T02:20:06;22.00;59.90
62589;DHT22;58504;48.770;9.148;2023-10-31T02:22:34;21.90;59.90
62589;DHT22;58504;48.770;9.148;2023-10-31T02:25:01;22.00;60.00
62589;DHT22;58504;48.770;9.148;2023-10-31T02:27:28;22.00;59.90
62589;DHT22;58504;48.770;9.148;2023-10-31T02:29:54;21.90;59.90
62589;DHT22;58504;48.770;9.148;2023-10-31T02:32:21;21.90;59.90
62589;DHT22;58504;48.770;9.148;2023-10-31T02:34:49;21.90;60.00
62589;DHT22;58504;48.770;9.148;2023-10-31T02:37:15;21.90;60.00
62589;DHT22;58504;48.770;9.148;2023-10-31T02:39:44;21.90;60.00
62589;DHT22;58504;48.770;9.148;2023-10-31T02:42:11;21.90;60.00
62589;DHT22;58504;48.770;9.148;2023-10-31T02:44:38;21.90;60.10
62589;DHT22;58504;48.770;9.148;2023-10-31T02:47:05;21.90;60.10
62589;DHT22;58504;48.770;9.148;2023-10-31T02:49:31;21.90;60.20
62589;DHT22;58504;48.770;9.148;2023-10-31T02:51:58;21.80;60.20
62589;DHT22;58504;48.770;9.148;2023-10-31T02:54:25;21.80;60.20
62589;DHT22;58504;48.770;9.148;2023-10-31T02:56:53;21.80;60.30
62589;DHT22;58504;48.770;9.148;2023-10-31T02:59:19;21.80;60.30
62589;DHT22;58504;48.770;9.148;2023-10-31T03:01:46;21.80;60.30
62589;DHT22;58504;48.770;9.148;2023-10-31T03:04:13;21.80;60.30
62589;DHT22;58504;48.770;9.148;2023-10-31T03:06:40;21.80;60.40
62589;DHT22;58504;48.770;9.148;2023-10-31T03:09:07;21.80;60.40
62589;DHT22;58504;48.770;9.148;2023-10-31T03:11:33;21.80;60.40
62589;DHT22;58504;48.770;9.148;2023-10-31T03:14:02;21.70;60.30
62589;DHT22;58504;48.770;9.148;2023-10-31T03:16:28;21.70;60.40
62589;DHT22;58504;48.770;9.148;2023-10-31T03:18:56;21.70;60.40
62589;DHT22;58504;48.770;9.148;2023-10-31T03:21:23;21.70;60.50
62589;DHT22;58504;48.770;9.148;2023-10-31T03:23:50;21.70;60.50
62589;DHT22;58504;48.770;9.148;2023-10-31T03:26:18;21.70;60.50
62589;DHT22;58504;48.770;9.148;2023-10-31T03:28:45;21.70;60.60
62589;DHT22;58504;48.770;9.148;2023-10-31T03:31:14;21.70;60.60
62589;DHT22;58504;48.770;9.148;2023-10-31T03:33:41;21.60;60.60
62589;DHT22;58504;48.770;9.148;2023-10-31T03:36:09;21.60;60.60
62589;DHT22;58504;48.770;9.148;2023-10-31T03:38:36;21.60;60.60
62589;DHT22;58504;48.770;9.148;2023-10-31T03:41:03;21.60;60.70
62589;DHT22;58504;48.770;9.148;2023-10-31T03:43:30;21.60;60.70
62589;DHT22;58504;48.770;9.148;2023-10-31T03:45:57;21.60;60.70
62589;DHT22;58504;48.770;9.148;2023-10-31T03:48:25;21.60;60.80
62589;DHT22;58504;48.770;9.148;2023-10-31T03:50:52;21.60;60.80
62589;DHT22;58504;48.770;9.148;2023-10-31T03:53:19;21.60;60.80
62589;DHT22;58504;48.770;9.148;2023-10-31T03:55:45;21.60;60.90
62589;DHT22;58504;48.770;9.148;2023-10-31T03:58:12;21.60;60.90
62589;DHT22;58504;48.770;9.148;2023-10-31T04:00:39;21.50;60.80
62589;DHT22;58504;48.770;9.148;2023-10-31T04:03:05;21.50;60.90
62589;DHT22;58504;48.770;9.148;2023-10-31T04:05:34;21.50;60.90
62589;DHT22;58504;48.770;9.148;2023-10-31T04:08:01;21.50;60.90
62589;DHT22;58504;48.770;9.148;2023-10-31T04:10:27;21.50;60.90
62589;DHT22;58504;48.770;9.148;2023-10-31T04:12:54;21.50;61.00
62589;DHT22;58504;48.770;9.148;2023-10-31T04:15:21;21.50;61.00
62589;DHT22;58504;48.770;9.148;2023-10-31T04:17:48;21.50;61.00
62589;DHT22;58504;48.770;9.148;2023-10-31T04:20:15;21.50;61.00
62589;DHT22;58504;48.770;9.148;2023-10-31T04:22:43;21.50;61.00
62589;DHT22;58504;48.770;9.148;2023-10-31T04:25:09;21.50;61.10
62589;DHT22;58504;48.770;9.148;2023-10-31T04:27:36;21.50;61.10
62589;DHT22;58504;48.770;9.148;2023-10-31T04:30:04;21.40;61.00
62589;DHT22;58504;48.770;9.148;2023-10-31T04:32:30;21.40;61.00
62589;DHT22;58504;48.770;9.148;2023-10-31T04:34:57;21.40;61.10
62589;DHT22;58504;48.770;9.148;2023-10-31T04:37:24;21.50;60.90
62589;DHT22;58504;48.770;9.148;2023-10-31T04:39:52;21.60;60.40
62589;DHT22;58504;48.770;9.148;2023-10-31T04:42:19;21.80;60.30
62589;DHT22;58504;48.770;9.148;2023-10-31T04:44:46;21.80;59.90
62589;DHT22;58504;48.770;9.148;2023-10-31T04:47:12;21.90;59.80
62589;DHT22;58504;48.770;9.148;2023-10-31T04:49:39;22.00;59.70
62589;DHT22;58504;48.770;9.148;2023-10-31T04:52:06;22.00;59.60
62589;DHT22;58504;48.770;9.148;2023-10-31T04:54:33;22.10;59.60
62589;DHT22;58504;48.770;9.148;2023-10-31T04:57:01;22.10;59.50
62589;DHT22;58504;48.770;9.148;2023-10-31T04:59:28;22.20;59.30
62589;DHT22;58504;48.770;9.148;2023-10-31T05:01:55;22.20;59.20
62589;DHT22;58504;48.770;9.148;2023-10-31T05:04:22;22.30;59.20
62589;DHT22;58504;48.770;9.148;2023-10-31T05:06:49;22.40;59.20
62589;DHT22;58504;48.770;9.148;2023-10-31T05:09:15;22.40;59.00
62589;DHT22;58504;48.770;9.148;2023-10-31T05:11:43;22.40;58.90
62589;DHT22;58504;48.770;9.148;2023-10-31T05:14:11;22.50;58.60
62589;DHT22;58504;48.770;9.148;2023-10-31T05:16:41;22.50;58.20
62589;DHT22;58504;48.770;9.148;2023-10-31T05:19:08;22.60;58.10
62589;DHT22;58504;48.770;9.148;2023-10-31T05:21:36;22.60;58.10
62589;DHT22;58504;48.770;9.148;2023-10-31T05:24:03;22.60;58.10
62589;DHT22;58504;48.770;9.148;2023-10-31T05:26:30;22.70;58.20
62589;DHT22;58504;48.770;9.148;2023-10-31T05:28:56;22.70;58.10
62589;DHT22;58504;48.770;9.148;2023-10-31T05:31:25;22.70;58.10
62589;DHT22;58504;48.770;9.148;2023-10-31T05:33:51;22.80;58.10
62589;DHT22;58504;48.770;9.148;2023-10-31T05:36:19;22.80;58.00
62589;DHT22;58504;48.770;9.148;2023-10-31T05:38:46;22.90;58.00
62589;DHT22;58504;48.770;9.148;2023-10-31T05:41:13;22.90;58.00
62589;DHT22;58504;48.770;9.148;2023-10-31T05:43:41;22.90;57.90
62589;DHT22;58504;48.770;9.148;2023-10-31T05:46:07;22.90;57.90
62589;DHT22;58504;48.770;9.148;2023-10-31T05:48:37;23.00;57.90
62589;DHT22;58504;48.770;9.148;2023-10-31T05:51:04;23.00;57.80
62589;DHT22;58504;48.770;9.148;2023-10-31T05:53:31;23.00;57.70
62589;DHT22;58504;48.770;9.148;2023-10-31T05:55:59;23.00;57.70
62589;DHT22;58504;48.770;9.148;2023-10-31T05:58:26;23.10;57.70
62589;DHT22;58504;48.770;9.148;2023-10-31T06:00:52;23.10;57.60
62589;DHT22;58504;48.770;9.148;2023-10-31T06:03:19;23.10;57.50
62589;DHT22;58504;48.770;9.148;2023-10-31T06:05:47;23.10;57.40
62589;DHT22;58504;48.770;9.148;2023-10-31T06:08:14;23.10;57.40
62589;DHT22;58504;48.770;9.148;2023-10-31T06:10:41;23.20;57.40
62589;DHT22;58504;48.770;9.148;2023-10-31T06:13:07;23.20;57.40
62589;DHT22;58504;48.770;9.148;2023-10-31T06:15:34;23.20;57.30
62589;DHT22;58504;48.770;9.148;2023-10-31T06:18:01;23.20;57.30
62589;DHT22;58504;48.770;9.148;2023-10-31T06:20:28;23.20;57.20
62589;DHT22;58504;48.770;9.148;2023-10-31T06:22:56;23.30;57.20
62589;DHT22;58504;48.770;9.148;2023-10-31T06:25:24;23.30;57.10
62589;DHT22;58504;48.770;9.148;2023-10-31T06:27:51;23.30;57.00
62589;DHT22;58504;48.770;9.148;2023-10-31T06:30:18;23.30;57.00
62589;DHT22;58504;48.770;9.148;2023-10-31T06:32:45;23.30;57.10
62589;DHT22;58504;48.770;9.148;2023-10-31T06:35:11;23.30;57.00
62589;DHT22;58504;48.770;9.148;2023-10-31T06:37:38;23.40;57.00
62589;DHT22;58504;48.770;9.148;2023-10-31T06:40:07;23.40;56.90
62589;DHT22;58504;48.770;9.148;2023-10-31T06:42:35;23.40;56.80
62589;DHT22;58504;48.770;9.148;2023-10-31T06:45:02;23.50;56.80
62589;DHT22;58504;48.770;9.148;2023-10-31T06:47:30;23.50;56.80
62589;DHT22;58504;48.770;9.148;2023-10-31T06:49:57;23.50;56.70
62589;DHT22;58504;48.770;9.148;2023-10-31T06:52:23;23.60;56.60
62589;DHT22;58504;48.770;9.148;2023-10-31T06:54:50;23.60;56.60
62589;DHT22;58504;48.770;9.148;2023-10-31T06:57:18;23.60;56.50
62589;DHT22;58504;48.770;9.148;2023-10-31T06:59:45;23.60;56.40
62589;DHT22;58504;48.770;9.148;2023-10-31T07:02:12;23.70;56.40
62589;DHT22;58504;48.770;9.148;2023-10-31T07:04:39;23.70;56.40
62589;DHT22;58504;48.770;9.148;2023-10-31T07:07:06;23.70;56.30
62589;DHT22;58504;48.770;9.148;2023-10-31T07:09:33;23.70;56.20
62589;DHT22;58504;48.770;9.148;2023-10-31T07:12:00;23.80;56.30
62589;DHT22;58504;48.770;9.148;2023-10-31T07:14:28;23.80;56.20
62589;DHT22;58504;48.770;9.148;2023-10-31T07:16:56;23.80;56.10
62589;DHT22;58504;48.770;9.148;2023-10-31T07:19:23;23.80;56.00
62589;DHT22;58504;48.770;9.148;2023-10-31T07:21:49;23.90;56.10
62589;DHT22;58504;48.770;9.148;2023-10-31T07:24:16;23.90;56.00
62589;DHT22;58504;48.770;9.148;2023-10-31T07:26:43;23.90;55.90
62589;DHT22;58504;48.770;9.148;2023-10-31T07:29:10;23.90;55.80
62589;DHT22;58504;48.770;9.148;2023-10-31T07:31:38;24.00;55.90
62589;DHT22;58504;48.770;9.148;2023-10-31T07:34:05;24.00;55.60
62589;DHT22;58504;48.770;9.148;2023-10-31T07:36:32;24.00;55.80
62589;DHT22;58504;48.770;9.148;2023-10-31T07:39:00;24.00;55.30
62589;DHT22;58504;48.770;9.148;2023-10-31T07:41:27;24.00;55.20
62589;DHT22;58504;48.770;9.148;2023-10-31T07:43:54;24.10;55.30
62589;DHT22;58504;48.770;9.148;2023-10-31T07:46:21;24.20;55.20
62589;DHT22;58504;48.770;9.148;2023-10-31T07:48:50;24.30;55.10
62589;DHT22;58504;48.770;9.148;2023-10-31T07:51:16;24.30;54.90
62589;DHT22;58504;48.770;9.148;2023-10-31T07:53:43;24.40;54.80
62589;DHT22;58504;48.770;9.148;2023-10-31T07:56:14;24.50;54.80
62589;DHT22;58504;48.770;9.148;2023-10-31T07:58:41;24.60;54.70
62589;DHT22;58504;48.770;9.148;2023-10-31T08:01:08;24.70;55.20
62589;DHT22;58504;48.770;9.148;2023-10-31T08:03:36;24.70;54.50
62589;DHT22;58504;48.770;9.148;2023-10-31T08:06:05;24.70;54.40
62589;DHT22;58504;48.770;9.148;2023-10-31T08:08:33;24.80;54.30
62589;DHT22;58504;48.770;9.148;2023-10-31T08:10:59;24.90;54.30
62589;DHT22;58504;48.770;9.148;2023-10-31T08:13:26;24.90;54.20
62589;DHT22;58504;48.770;9.148;2023-10-31T08:15:53;24.90;54.10
62589;DHT22;58504;48.770;9.148;2023-10-31T08:18:20;25.00;54.10
62589;DHT22;58504;48.770;9.148;2023-10-31T08:20:50;25.00;53.90
62589;DHT22;58504;48.770;9.148;2023-10-31T08:23:18;25.10;53.90
62589;DHT22;58504;48.770;9.148;2023-10-31T08:25:44;25.20;53.80
62589;DHT22;58504;48.770;9.148;2023-10-31T08:28:12;25.20;53.70
62589;DHT22;58504;48.770;9.148;2023-10-31T08:30:38;25.30;54.20
62589;DHT22;58504;48.770;9.148;2023-10-31T08:33:05;25.30;53.50
62589;DHT22;58504;48.770;9.148;2023-10-31T08:35:32;25.30;53.50
62589;DHT22;58504;48.770;9.148;2023-10-31T08:37:59;25.50;53.50
62589;DHT22;58504;48.770;9.148;2023-10-31T08:40:27;25.40;53.40
62589;DHT22;58504;48.770;9.148;2023-10-31T08:42:54;25.40;53.30
62589;DHT22;58504;48.770;9.148;2023-10-31T08:45:21;25.50;53.30
62589;DHT22;58504;48.770;9.148;2023-10-31T08:47:48;25.50;53.40
62589;DHT22;58504;48.770;9.148;2023-10-31T08:50:15;25.60;53.40
62589;DHT22;58504;48.770;9.148;2023-10-31T08:52:42;25.60;53.20
62589;DHT22;58504;48.770;9.148;2023-10-31T08:55:09;25.60;53.10
62589;DHT22;58504;48.770;9.148;2023-10-31T08:57:37;25.60;53.00
62589;DHT22;58504;48.770;9.148;2023-10-31T09:00:06;25.70;53.10
62589;DHT22;58504;48.770;9.148;2023-10-31T09:02:33;25.70;52.80
62589;DHT22;58504;48.770;9.148;2023-10-31T09:05:00;25.80;52.90
62589;DHT22;58504;48.770;9.148;2023-10-31T09:07:26;25.80;53.00
62589;DHT22;58504;48.770;9.148;2023-10-31T09:09:53;25.80;52.90
62589;DHT22;58504;48.770;9.148;2023-10-31T09:12:20;25.90;53.00
62589;DHT22;58504;48.770;9.148;2023-10-31T09:14:48;25.90;53.00
62589;DHT22;58504;48.770;9.148;2023-10-31T09:17:15;25.90;52.90
62589;DHT22;58504;48.770;9.148;2023-10-31T09:19:42;25.90;52.90
62589;DHT22;58504;48.770;9.148;2023-10-31T09:22:09;26.00;53.00
62589;DHT22;58504;48.770;9.148;2023-10-31T09:24:35;26.00;52.80
62589;DHT22;58504;48.770;9.148;2023-10-31T09:27:03;26.00;52.80
62589;DHT22;58504;48.770;9.148;2023-10-31T09:29:30;26.00;52.90
62589;DHT22;58504;48.770;9.148;2023-10-31T09:31:58;25.90;52.90
62589;DHT22;58504;48.770;9.148;2023-10-31T09:34:25;25.90;53.10
62589;DHT22;58504;48.770;9.148;2023-10-31T09:36:52;25.90;53.30
62589;DHT22;58504;48.770;9.148;2023-10-31T09:39:18;25.90;53.10
62589;DHT22;58504;48.770;9.148;2023-10-31T09:41:44;25.90;53.10
62589;DHT22;58504;48.770;9.148;2023-10-31T09:44:11;26.00;53.10
62589;DHT22;58504;48.770;9.148;2023-10-31T09:46:39;25.90;53.00
62589;DHT22;58504;48.770;9.148;2023-10-31T09:49:08;26.00;53.00
62589;DHT22;58504;48.770;9.148;2023-10-31T09:51:36;26.00;53.00
62589;DHT22;58504;48.770;9.148;2023-10-31T09:54:06;26.10;53.00
62589;DHT22;58504;48.770;9.148;2023-10-31T09:56:34;26.10;52.90
62589;DHT22;58504;48.770;9.148;2023-10-31T09:59:01;26.20;49.20
62589;DHT22;58504;48.770;9.148;2023-10-31T10:01:28;26.10;46.40
62589;DHT22;58504;48.770;9.148;2023-10-31T10:03:55;26.00;44.70
62589;DHT22;58504;48.770;9.148;2023-10-31T10:06:24;25.80;44.40
62589;DHT22;58504;48.770;9.148;2023-10-31T10:08:51;25.60;44.20
62589;DHT22;58504;48.770;9.148;2023-10-31T10:11:18;25.40;44.10
62589;DHT22;58504;48.770;9.148;2023-10-31T10:13:45;25.20;44.10
62589;DHT22;58504;48.770;9.148;2023-10-31T10:16:11;25.00;44.10
62589;DHT22;58504;48.770;9.148;2023-10-31T10:18:38;24.80;44.50
62589;DHT22;58504;48.770;9.148;2023-10-31T10:21:07;24.60;45.00
62589;DHT22;58504;48.770;9.148;2023-10-31T10:23:36;24.40;44.90
62589;DHT22;58504;48.770;9.148;2023-10-31T10:26:03;24.20;44.60
62589;DHT22;58504;48.770;9.148;2023-10-31T10:28:30;24.10;45.00
62589;DHT22;58504;48.770;9.148;2023-10-31T10:30:58;24.00;45.50
62589;DHT22;58504;48.770;9.148;2023-10-31T10:33:25;23.90;45.70
62589;DHT22;58504;48.770;9.148;2023-10-31T10:35:55;23.80;46.10
62589;DHT22;58504;48.770;9.148;2023-10-31T10:38:22;23.70;46.70
62589;DHT22;58504;48.770;9.148;2023-10-31T10:40:50;23.60;47.80
62589;DHT22;58504;48.770;9.148;2023-10-31T10:43:21;23.60;49.00
62589;DHT22;58504;48.770;9.148;2023-10-31T10:45:52;23.60;49.80
62589;DHT22;58504;48.770;9.148;2023-10-31T10:48:22;23.60;50.60
62589;DHT22;58504;48.770;9.148;2023-10-31T10:50:56;23.60;51.20
62589;DHT22;58504;48.770;9.148;2023-10-31T10:53:24;23.60;51.70
62589;DHT22;58504;48.770;9.148;2023-10-31T10:55:56;23.70;52.20
62589;DHT22;58504;48.770;9.148;2023-10-31T10:58:30;23.60;53.30
62589;DHT22;58504;48.770;9.148;2023-10-31T11:00:59;23.70;53.10
62589;DHT22;58504;48.770;9.148;2023-10-31T11:03:26;23.70;53.50
62589;DHT22;58504;48.770;9.148;2023-10-31T11:05:54;23.70;53.80
62589;DHT22;58504;48.770;9.148;2023-10-31T11:08:23;23.80;53.80
62589;DHT22;58504;48.770;9.148;2023-10-31T11:10:53;23.80;54.10
62589;DHT22;58504;48.770;9.148;2023-10-31T11:13:22;23.80;54.10
62589;DHT22;58504;48.770;9.148;2023-10-31T11:15:53;23.90;54.30
62589;DHT22;58504;48.770;9.148;2023-10-31T11:18:22;23.90;54.30
62589;DHT22;58504;48.770;9.148;2023-10-31T11:20:50;23.80;54.50
62589;DHT22;58504;48.770;9.148;2023-10-31T11:23:17;23.80;54.70
62589;DHT22;58504;48.770;9.148;2023-10-31T11:25:44;23.80;54.80
62589;DHT22;58504;48.770;9.148;2023-10-31T11:28:13;23.80;54.90
62589;DHT22;58504;48.770;9.148;2023-10-31T11:30:41;23.80;55.00
62589;DHT22;58504;48.770;9.148;2023-10-31T11:33:12;23.80;55.20
62589;DHT22;58504;48.770;9.148;2023-10-31T11:35:39;23.80;55.30
62589;DHT22;58504;48.770;9.148;2023-10-31T11:38:07;23.80;55.40
62589;DHT22;58504;48.770;9.148;2023-10-31T11:40:35;23.70;55.50
62589;DHT22;58504;48.770;9.148;2023-10-31T11:43:04;23.70;55.50
62589;DHT22;58504;48.770;9.148;2023-10-31T11:45:34;23.70;55.50
62589;DHT22;58504;48.770;9.148;2023-10-31T11:48:02;23.70;55.60
62589;DHT22;58504;48.770;9.148;2023-10-31T11:50:30;23.70;55.70
62589;DHT22;58504;48.770;9.148;2023-10-31T11:53:04;23.60;55.70
62589;DHT22;58504;48.770;9.148;2023-10-31T11:55:35;23.60;55.70
62589;DHT22;58504;48.770;9.148;2023-10-31T11:58:16;23.60;55.80
62589;DHT22;58504;48.770;9.148;2023-10-31T12:00:44;23.60;55.60
62589;DHT22;58504;48.770;9.148;2023-10-31T12:03:11;23.50;55.80
62589;DHT22;58504;48.770;9.148;2023-10-31T12:05:38;23.50;56.00
62589;DHT22;58504;48.770;9.148;2023-10-31T12:08:05;23.50;56.10
62589;DHT22;58504;48.770;9.148;2023-10-31T12:10:32;23.40;56.20
62589;DHT22;58504;48.770;9.148;2023-10-31T12:12:59;23.40;56.20
62589;DHT22;58504;48.770;9.148;2023-10-31T12:15:26;23.40;56.40
62589;DHT22;58504;48.770;9.148;2023-10-31T12:17:57;23.40;56.40
62589;DHT22;58504;48.770;9.148;2023-10-31T12:20:25;23.40;56.50
62589;DHT22;58504;48.770;9.148;2023-10-31T12:23:02;23.40;56.50
62589;DHT22;58504;48.770;9.148;2023-10-31T12:25:29;23.40;56.70
62589;DHT22;58504;48.770;9.148;2023-10-31T12:27:58;23.50;56.90
62589;DHT22;58504;48.770;9.148;2023-10-31T12:30:25;23.40;57.00
62589;DHT22;58504;48.770;9.148;2023-10-31T12:32:55;23.40;57.00
62589;DHT22;58504;48.770;9.148;2023-10-31T12:35:23;23.40;57.00
62589;DHT22;58504;48.770;9.148;2023-10-31T12:37:50;23.40;57.10
62589;DHT22;58504;48.770;9.148;2023-10-31T12:40:19;23.50;57.10
62589;DHT22;58504;48.770;9.148;2023-10-31T12:42:47;23.50;57.00
62589;DHT22;58504;48.770;9.148;2023-10-31T12:45:15;23.50;57.10
62589;DHT22;58504;48.770;9.148;2023-10-31T12:47:42;23.50;57.10
62589;DHT22;58504;48.770;9.148;2023-10-31T12:50:13;23.50;57.20
62589;DHT22;58504;48.770;9.148;2023-10-31T12:52:49;23.50;57.10
62589;DHT22;58504;48.770;9.148;2023-10-31T12:55:17;23.60;57.30
62589;DHT22;58504;48.770;9.148;2023-10-31T12:57:44;23.50;57.10
62589;DHT22;58504;48.770;9.148;2023-10-31T13:00:13;23.50;57.70
62589;DHT22;58504;48.770;9.148;2023-10-31T13:02:40;23.50;57.20
62589;DHT22;58504;48.770;9.148;2023-10-31T13:05:08;23.50;57.30
62589;DHT22;58504;48.770;9.148;2023-10-31T13:07:37;23.50;57.30
62589;DHT22;58504;48.770;9.148;2023-10-31T13:10:04;23.50;57.30
62589;DHT22;58504;48.770;9.148;2023-10-31T13:12:31;23.60;57.40
62589;DHT22;58504;48.770;9.148;2023-10-31T13:14:58;23.50;57.30
62589;DHT22;58504;48.770;9.148;2023-10-31T13:17:26;23.50;57.20
62589;DHT22;58504;48.770;9.148;2023-10-31T13:19:53;23.50;57.30
62589;DHT22;58504;48.770;9.148;2023-10-31T13:22:20;23.50;57.20
62589;DHT22;58504;48.770;9.148;2023-10-31T13:24:48;23.60;57.30
62589;DHT22;58504;48.770;9.148;2023-10-31T13:27:15;23.50;57.20
62589;DHT22;58504;48.770;9.148;2023-10-31T13:29:42;23.50;57.30
62589;DHT22;58504;48.770;9.148;2023-10-31T13:32:11;23.60;57.50
62589;DHT22;58504;48.770;9.148;2023-10-31T13:34:37;23.50;57.40
62589;DHT22;58504;48.770;9.148;2023-10-31T13:37:04;23.50;57.30
62589;DHT22;58504;48.770;9.148;2023-10-31T13:39:32;23.50;57.50
62589;DHT22;58504;48.770;9.148;2023-10-31T13:42:00;23.50;57.50
62589;DHT22;58504;48.770;9.148;2023-10-31T13:44:26;23.50;57.50
62589;DHT22;58504;48.770;9.148;2023-10-31T13:46:53;23.50;57.50
62589;DHT22;58504;48.770;9.148;2023-10-31T13:49:20;23.40;57.40
62589;DHT22;58504;48.770;9.148;2023-10-31T13:51:47;23.40;57.50
62589;DHT22;58504;48.770;9.148;2023-10-31T13:54:14;23.40;57.60
62589;DHT22;58504;48.770;9.148;2023-10-31T13:56:41;23.40;57.70
62589;DHT22;58504;48.770;9.148;2023-10-31T13:59:09;23.40;57.80
62589;DHT22;58504;48.770;9.148;2023-10-31T14:01:35;23.40;57.70
62589;DHT22;58504;48.770;9.148;2023-10-31T14:04:02;23.40;57.60
62589;DHT22;58504;48.770;9.148;2023-10-31T14:06:29;23.40;57.50
62589;DHT22;58504;48.770;9.148;2023-10-31T14:08:58;23.40;57.50
62589;DHT22;58504;48.770;9.148;2023-10-31T14:11:25;23.40;57.50
62589;DHT22;58504;48.770;9.148;2023-10-31T14:13:52;23.40;57.60
62589;DHT22;58504;48.770;9.148;2023-10-31T14:16:20;23.30;57.50
62589;DHT22;58504;48.770;9.148;2023-10-31T14:18:47;23.30;57.60
62589;DHT22;58504;48.770;9.148;2023-10-31T14:21:13;23.30;57.60
62589;DHT22;58504;48.770;9.148;2023-10-31T14:23:40;23.30;57.70
62589;DHT22;58504;48.770;9.148;2023-10-31T14:26:07;23.30;57.70
62589;DHT22;58504;48.770;9.148;2023-10-31T14:28:34;23.30;57.80
62589;DHT22;58504;48.770;9.148;2023-10-31T14:31:00;23.20;57.80
62589;DHT22;58504;48.770;9.148;2023-10-31T14:33:28;23.20;58.00
62589;DHT22;58504;48.770;9.148;2023-10-31T14:35:56;23.20;58.00
62589;DHT22;58504;48.770;9.148;2023-10-31T14:38:22;23.20;58.10
62589;DHT22;58504;48.770;9.148;2023-10-31T14:40:49;23.20;58.10
62589;DHT22;58504;48.770;9.148;2023-10-31T14:43:16;23.20;58.10
62589;DHT22;58504;48.770;9.148;2023-10-31T14:45:44;23.20;58.20
62589;DHT22;58504;48.770;9.148;2023-10-31T14:48:10;23.20;58.20
62589;DHT22;58504;48.770;9.148;2023-10-31T14:50:39;23.20;58.20
62589;DHT22;58504;48.770;9.148;2023-10-31T14:53:06;23.20;58.20
62589;DHT22;58504;48.770;9.148;2023-10-31T14:55:34;23.20;58.40
62589;DHT22;58504;48.770;9.148;2023-10-31T14:58:01;23.20;58.50
62589;DHT22;58504;48.770;9.148;2023-10-31T15:00:28;23.10;58.40
62589;DHT22;58504;48.770;9.148;2023-10-31T15:02:55;23.10;58.50
62589;DHT22;58504;48.770;9.148;2023-10-31T15:05:22;23.10;58.60
62589;DHT22;58504;48.770;9.148;2023-10-31T15:07:50;23.10;58.60
62589;DHT22;58504;48.770;9.148;2023-10-31T15:10:18;23.10;58.70
62589;DHT22;58504;48.770;9.148;2023-10-31T15:12:46;23.10;58.70
62589;DHT22;58504;48.770;9.148;2023-10-31T15:15:14;23.10;58.70
62589;DHT22;58504;48.770;9.148;2023-10-31T15:17:41;23.10;58.70
62589;DHT22;58504;48.770;9.148;2023-10-31T15:20:08;23.10;58.70
62589;DHT22;58504;48.770;9.148;2023-10-31T15:22:38;23.10;58.80
62589;DHT22;58504;48.770;9.148;2023-10-31T15:25:07;23.10;58.80
62589;DHT22;58504;48.770;9.148;2023-10-31T15:27:34;23.10;58.90
62589;DHT22;58504;48.770;9.148;2023-10-31T15:30:01;23.10;58.90